createdAt,value
2019-02-02T00:40:42.105Z,22.10
2019-02-02T00:47:06.558Z,22.27
2019-02-02T00:50:42.917Z,21.97
2019-02-02T00:53:05.729Z,20.10
2019-02-02T00:57:33.771Z,25.53
2019-02-02T01:04:12.116Z,21.67
2019-02-02T01:07:57.394Z,27.77
2019-02-02T01:11:56.975Z,21.93
2019-02-02T01:19:04.889Z,29.87
2019-02-02T01:22:13.315Z,20.37
2019-02-02T01:29:51.361Z,26.33
2019-02-02T01:33:24.644Z,18.80
2019-02-02T01:51:09.984Z,24.80
2019-02-02T01:58:15.812Z,25.13
2019-02-02T01:58:57.134Z,27.70
2019-02-02T02:01:05.948Z,28.80
2019-02-02T02:03:45.670Z,26.83
2019-02-02T02:10:22.499Z,31.43
2019-02-02T02:13:57.208Z,26.87
2019-02-02T02:16:51.532Z,24.77
2019-02-02T02:22:26.007Z,26.73
2019-02-02T02:25:07.382Z,32.90
2019-02-02T02:28:27.762Z,29.83
2019-02-02T02:31:20.035Z,25.90
2019-02-02T02:34:20.028Z,27.23
2019-02-02T02:36:59.665Z,33.40
2019-02-02T02:43:00.319Z,35.63
2019-02-02T02:45:55.785Z,28.07
2019-02-02T02:48:45.107Z,27.93
2019-02-02T02:51:35.706Z,31.20
2019-02-02T02:54:30.968Z,36.28
2019-02-02T02:57:34.813Z,25.60
2019-02-02T03:00:33.273Z,33.70
2019-02-02T03:06:32.463Z,27.97
2019-02-02T03:09:21.024Z,34.33
2019-02-02T03:12:38.695Z,25.73
2019-02-02T03:15:23.385Z,31.43
2019-02-02T03:18:00.424Z,31.43
2019-02-02T03:20:40.187Z,34.43
2019-02-02T03:23:20.816Z,31.57
2019-02-02T03:26:00.686Z,35.43
2019-02-02T03:28:53.251Z,28.83
2019-02-02T03:31:32.526Z,27.57
2019-02-02T03:34:32.848Z,35.60
2019-02-02T03:37:23.986Z,40.23
2019-02-02T03:40:26.836Z,31.70
2019-02-02T03:43:18.916Z,36.60
2019-02-02T03:46:30.876Z,38.73
2019-02-02T03:49:17.974Z,37.70
2019-02-02T03:51:57.277Z,30.67
2019-02-02T03:54:37.846Z,33.23
2019-02-02T03:57:43.819Z,33.53
2019-02-02T04:00:34.507Z,38.10
2019-02-02T04:03:19.329Z,34.70
2019-02-02T04:05:57.267Z,34.20
2019-02-02T04:08:35.856Z,40.77
2019-02-02T04:11:20.397Z,40.07
2019-02-02T04:14:11.967Z,33.70
2019-02-02T04:16:46.639Z,37.53
2019-02-02T04:20:06.346Z,42.93
2019-02-02T04:22:41.606Z,42.43
2019-02-02T04:25:25.495Z,36.80
2019-02-02T04:28:13.882Z,47.53
2019-02-02T04:30:57.319Z,39.63
2019-02-02T04:33:46.724Z,40.73
2019-02-02T04:36:43.615Z,40.57
2019-02-02T04:39:36.381Z,48.67
2019-02-02T04:42:31.685Z,42.13
2019-02-02T04:45:55.895Z,53.23
2019-02-02T04:48:32.412Z,43.03
2019-02-02T04:51:21.563Z,46.43
2019-02-02T04:54:39.220Z,41.80
2019-02-02T04:58:47.026Z,48.07
2019-02-02T05:00:39.044Z,49.00
2019-02-02T05:03:42.284Z,40.30
2019-02-02T05:06:21.047Z,51.00
2019-02-02T05:09:27.559Z,49.40
2019-02-02T05:12:35.247Z,52.20
2019-02-02T05:15:35.335Z,52.57
2019-02-02T05:18:22.877Z,50.57
2019-02-02T05:21:38.526Z,55.25
2019-02-02T05:24:38.377Z,61.67
2019-02-02T05:30:53.854Z,49.60
2019-02-02T05:33:42.677Z,47.50
2019-02-02T05:36:36.173Z,51.10
2019-02-02T05:39:27.448Z,55.07
2019-02-02T05:42:18.202Z,48.47
2019-02-02T05:45:07.248Z,45.57
2019-02-02T05:48:17.486Z,47.43
2019-02-02T05:50:56.074Z,61.03
2019-02-02T05:54:48.886Z,48.13
2019-02-02T05:57:41.607Z,44.20
2019-02-02T06:00:35.483Z,54.43
2019-02-02T06:03:19.167Z,47.80
2019-02-02T06:06:21.282Z,50.17
2019-02-02T06:12:19.037Z,52.50
2019-02-02T06:15:50.802Z,56.43
2019-02-02T06:21:45.851Z,51.83
2019-02-02T06:24:41.829Z,53.17
2019-02-02T06:27:42.638Z,49.33
2019-02-02T06:30:35.964Z,51.10
2019-02-02T06:34:03.337Z,46.70
2019-02-02T06:36:59.304Z,45.23
2019-02-02T06:39:55.519Z,48.80
2019-02-02T06:43:06.559Z,47.90
2019-02-02T06:46:09.574Z,50.53
2019-02-02T06:49:12.727Z,41.20
2019-02-02T06:56:07.297Z,44.83
2019-02-02T06:58:52.987Z,45.97
2019-02-02T07:02:05.806Z,47.00
2019-02-02T07:05:33.614Z,46.13
2019-02-02T07:08:56.825Z,48.73
2019-02-02T07:11:51.019Z,44.87
2019-02-02T07:15:36.852Z,42.20
2019-02-02T07:21:25.538Z,48.13
2019-02-02T07:24:37.023Z,42.50
2019-02-02T07:27:40.979Z,50.73
2019-02-02T07:31:00.460Z,47.77
2019-02-02T07:41:31.297Z,47.87
2019-02-02T07:45:57.525Z,48.53
2019-02-02T07:55:22.061Z,52.27
2019-02-02T07:59:07.517Z,52.43
2019-02-02T08:02:12.110Z,51.83
2019-02-02T08:06:05.847Z,45.60
2019-02-02T08:09:40.341Z,54.23
2019-02-02T08:27:34.318Z,57.17
2019-02-02T08:30:56.190Z,59.13
2019-02-02T08:34:53.234Z,55.33
2019-02-02T08:38:27.880Z,59.10
2019-02-02T08:41:50.873Z,53.30
2019-02-02T08:53:37.273Z,55.17
2019-02-02T08:57:14.081Z,57.47
2019-02-02T09:11:32.463Z,51.37
2019-02-02T09:19:11.176Z,52.20
2019-02-02T09:29:24.547Z,56.70
2019-02-02T09:33:06.084Z,54.37
2019-02-02T09:43:43.866Z,60.80
2019-02-02T09:53:57.572Z,59.43
2019-02-02T09:57:22.120Z,61.00
2019-02-02T10:00:54.870Z,65.77
2019-02-02T10:04:20.285Z,60.43
2019-02-02T10:28:55.661Z,61.90
2019-02-02T10:32:51.055Z,59.43
2019-02-02T14:08:37.492Z,87.60
2019-02-02T14:34:40.013Z,92.53
2019-02-02T14:38:00.067Z,99.57
2019-02-02T14:41:44.529Z,104.17
2019-02-02T14:49:23.727Z,88.30
2019-02-02T14:53:03.849Z,97.20
2019-02-02T15:03:25.878Z,100.87
2019-02-02T20:40:38.954Z,93.62
2019-02-02T20:47:09.392Z,89.20
2019-02-02T21:41:26.050Z,92.43
2019-02-02T22:01:05.559Z,114.60
2019-02-02T22:20:53.925Z,124.03
2019-02-02T22:51:46.445Z,122.97
2019-02-02T23:35:38.587Z,123.17
